sensor_id;sensor_type;location;lat;lon;timestamp;pressure;altitude;pressure_sealevel;temperature;humidity
14966;BME280;7577;45.226;5.798;2023-03-26T00:01:53;98994.14;;;20.71;44.09
14966;BME280;7577;45.226;5.798;2023-03-26T00:07:03;98988.75;;;20.74;44.05
14966;BME280;7577;45.226;5.798;2023-03-26T00:09:33;98999.68;;;20.71;44.05
14966;BME280;7577;45.226;5.798;2023-03-26T00:14:48;98981.92;;;20.72;44.06
14966;BME280;7577;45.226;5.798;2023-03-26T00:17:19;98979.56;;;20.68;44.07
14966;BME280;7577;45.226;5.798;2023-03-26T00:19:49;98974.03;;;20.68;44.07
14966;BME280;7577;45.226;5.798;2023-03-26T00:24:59;98960.69;;;20.70;44.07
14966;BME280;7577;45.226;5.798;2023-03-26T00:27:29;98966.05;;;20.66;44.07
14966;BME280;7577;45.226;5.798;2023-03-26T00:32:38;98975.66;;;20.69;44.03
14966;BME280;7577;45.226;5.798;2023-03-26T00:35:10;98966.14;;;20.64;44.04
14966;BME280;7577;45.226;5.798;2023-03-26T00:37:40;98951.42;;;20.66;44.02
14966;BME280;7577;45.226;5.798;2023-03-26T00:40:12;98950.92;;;20.64;44.01
14966;BME280;7577;45.226;5.798;2023-03-26T00:42:42;98967.20;;;20.65;43.99
14966;BME280;7577;45.226;5.798;2023-03-26T00:45:12;98969.41;;;20.66;43.98
14966;BME280;7577;45.226;5.798;2023-03-26T00:47:43;98955.40;;;20.62;44.01
14966;BME280;7577;45.226;5.798;2023-03-26T00:50:13;98949.30;;;20.63;43.99
14966;BME280;7577;45.226;5.798;2023-03-26T00:52:44;98949.63;;;20.61;43.99
14966;BME280;7577;45.226;5.798;2023-03-26T00:55:14;98944.42;;;20.60;44.01
14966;BME280;7577;45.226;5.798;2023-03-26T00:57:45;98951.92;;;20.59;44.01
14966;BME280;7577;45.226;5.798;2023-03-26T01:00:19;98943.63;;;20.59;44.01
14966;BME280;7577;45.226;5.798;2023-03-26T01:02:50;98935.64;;;20.58;44.03
14966;BME280;7577;45.226;5.798;2023-03-26T01:05:41;98934.59;;;20.56;44.04
14966;BME280;7577;45.226;5.798;2023-03-26T01:08:22;98942.56;;;20.58;44.04
14966;BME280;7577;45.226;5.798;2023-03-26T01:10:55;98922.63;;;20.58;44.05
14966;BME280;7577;45.226;5.798;2023-03-26T01:13:34;98913.27;;;20.57;44.07
14966;BME280;7577;45.226;5.798;2023-03-26T01:18:44;98950.63;;;20.57;44.10
14966;BME280;7577;45.226;5.798;2023-03-26T01:23:59;98939.30;;;20.56;44.13
14966;BME280;7577;45.226;5.798;2023-03-26T01:26:39;98957.37;;;20.53;44.16
14966;BME280;7577;45.226;5.798;2023-03-26T01:29:13;98951.61;;;20.52;44.19
14966;BME280;7577;45.226;5.798;2023-03-26T01:31:47;98942.74;;;20.53;44.20
14966;BME280;7577;45.226;5.798;2023-03-26T01:34:20;98932.83;;;20.52;44.20
14966;BME280;7577;45.226;5.798;2023-03-26T01:36:52;98941.69;;;20.51;44.23
14966;BME280;7577;45.226;5.798;2023-03-26T01:39:26;98950.55;;;20.51;44.25
14966;BME280;7577;45.226;5.798;2023-03-26T01:42:01;98942.24;;;20.51;44.27
14966;BME280;7577;45.226;5.798;2023-03-26T01:44:34;98930.94;;;20.50;44.27
14966;BME280;7577;45.226;5.798;2023-03-26T01:47:06;98935.83;;;20.53;44.30
14966;BME280;7577;45.226;5.798;2023-03-26T01:49:38;98941.36;;;20.53;44.24
14966;BME280;7577;45.226;5.798;2023-03-26T01:52:14;98949.66;;;20.53;44.24
14966;BME280;7577;45.226;5.798;2023-03-26T01:54:44;98946.39;;;20.51;44.29
14966;BME280;7577;45.226;5.798;2023-03-26T01:57:19;98949.16;;;20.51;44.29
14966;BME280;7577;45.226;5.798;2023-03-26T02:00:08;98945.60;;;20.50;44.32
14966;BME280;7577;45.226;5.798;2023-03-26T02:02:46;98940.06;;;20.50;44.30
14966;BME280;7577;45.226;5.798;2023-03-26T02:05:19;98925.73;;;20.48;44.34
14966;BME280;7577;45.226;5.798;2023-03-26T02:07:51;98919.64;;;20.49;44.30
14966;BME280;7577;45.226;5.798;2023-03-26T02:10:25;98915.25;;;20.48;44.32
14966;BME280;7577;45.226;5.798;2023-03-26T02:12:58;98917.76;;;20.47;44.34
14966;BME280;7577;45.226;5.798;2023-03-26T02:15:28;98916.38;;;20.47;44.37
14966;BME280;7577;45.226;5.798;2023-03-26T02:17:59;98918.34;;;20.46;44.40
14966;BME280;7577;45.226;5.798;2023-03-26T02:20:30;98920.29;;;20.46;44.41
14966;BME280;7577;45.226;5.798;2023-03-26T02:25:38;98910.28;;;20.47;44.41
14966;BME280;7577;45.226;5.798;2023-03-26T02:28:09;98909.90;;;20.43;44.45
14966;BME280;7577;45.226;5.798;2023-03-26T02:30:40;98914.84;;;20.43;44.45
14966;BME280;7577;45.226;5.798;2023-03-26T02:33:11;98917.84;;;20.44;44.49
14966;BME280;7577;45.226;5.798;2023-03-26T02:35:43;98916.23;;;20.43;44.51
14966;BME280;7577;45.226;5.798;2023-03-26T02:38:13;98904.92;;;20.42;44.54
14966;BME280;7577;45.226;5.798;2023-03-26T02:43:21;98916.73;;;20.45;44.55
14966;BME280;7577;45.226;5.798;2023-03-26T02:45:51;98914.61;;;20.42;44.60
14966;BME280;7577;45.226;5.798;2023-03-26T02:48:22;98902.72;;;20.42;44.64
14966;BME280;7577;45.226;5.798;2023-03-26T02:50:52;98894.74;;;20.40;44.64
14966;BME280;7577;45.226;5.798;2023-03-26T02:53:23;98901.34;;;20.42;44.63
14966;BME280;7577;45.226;5.798;2023-03-26T02:55:56;98895.56;;;20.41;44.64
14966;BME280;7577;45.226;5.798;2023-03-26T02:58:27;98890.27;;;20.42;44.68
14966;BME280;7577;45.226;5.798;2023-03-26T03:00:58;98893.63;;;20.41;44.69
14966;BME280;7577;45.226;5.798;2023-03-26T03:03:30;98890.86;;;20.41;44.71
14966;BME280;7577;45.226;5.798;2023-03-26T03:06:00;98872.05;;;20.41;44.72
14966;BME280;7577;45.226;5.798;2023-03-26T03:08:30;98864.31;;;20.40;44.76
14966;BME280;7577;45.226;5.798;2023-03-26T03:11:05;98859.45;;;20.37;44.80
14966;BME280;7577;45.226;5.798;2023-03-26T03:13:35;98854.48;;;20.37;44.84
14966;BME280;7577;45.226;5.798;2023-03-26T03:16:06;98848.39;;;20.37;44.88
14966;BME280;7577;45.226;5.798;2023-03-26T03:18:38;98845.03;;;20.38;44.88
14966;BME280;7577;45.226;5.798;2023-03-26T03:21:09;98842.86;;;20.37;44.86
14966;BME280;7577;45.226;5.798;2023-03-26T03:26:19;98825.93;;;20.39;44.91
14966;BME280;7577;45.226;5.798;2023-03-26T03:28:50;98819.11;;;20.36;44.93
14966;BME280;7577;45.226;5.798;2023-03-26T03:31:21;98814.14;;;20.36;44.91
14966;BME280;7577;45.226;5.798;2023-03-26T03:33:53;98806.16;;;20.34;44.93
14966;BME280;7577;45.226;5.798;2023-03-26T03:36:23;98810.55;;;20.35;44.93
14966;BME280;7577;45.226;5.798;2023-03-26T03:38:56;98795.00;;;20.37;44.93
14966;BME280;7577;45.226;5.798;2023-03-26T03:41:28;98797.54;;;20.36;44.97
14966;BME280;7577;45.226;5.798;2023-03-26T03:43:58;98796.48;;;20.34;44.96
14966;BME280;7577;45.226;5.798;2023-03-26T03:46:29;98792.89;;;20.34;45.00
14966;BME280;7577;45.226;5.798;2023-03-26T03:48:59;98785.98;;;20.34;44.99
14966;BME280;7577;45.226;5.798;2023-03-26T03:51:29;98775.17;;;20.35;44.99
14966;BME280;7577;45.226;5.798;2023-03-26T03:54:00;98759.95;;;20.35;45.01
14966;BME280;7577;45.226;5.798;2023-03-26T03:56:30;98754.75;;;20.33;45.02
14966;BME280;7577;45.226;5.798;2023-03-26T03:59:01;98748.63;;;20.34;45.04
14966;BME280;7577;45.226;5.798;2023-03-26T04:01:32;98754.52;;;20.32;45.08
14966;BME280;7577;45.226;5.798;2023-03-26T04:04:02;98759.79;;;20.31;45.08
14966;BME280;7577;45.226;5.798;2023-03-26T04:06:33;98749.78;;;20.33;45.10
14966;BME280;7577;45.226;5.798;2023-03-26T04:11:41;98737.83;;;20.35;45.12
14966;BME280;7577;45.226;5.798;2023-03-26T04:14:11;98742.63;;;20.32;45.15
14966;BME280;7577;45.226;5.798;2023-03-26T04:16:41;98737.33;;;20.33;45.16
14966;BME280;7577;45.226;5.798;2023-03-26T04:19:11;98735.72;;;20.32;45.20
14966;BME280;7577;45.226;5.798;2023-03-26T04:21:41;98728.47;;;20.33;45.23
14966;BME280;7577;45.226;5.798;2023-03-26T04:24:12;98719.02;;;20.34;45.21
14966;BME280;7577;45.226;5.798;2023-03-26T04:26:42;98716.25;;;20.34;45.22
14966;BME280;7577;45.226;5.798;2023-03-26T04:31:52;98696.47;;;20.38;45.23
14966;BME280;7577;45.226;5.798;2023-03-26T04:34:26;98699.00;;;20.37;45.25
14966;BME280;7577;45.226;5.798;2023-03-26T04:36:57;98694.85;;;20.37;45.24
14966;BME280;7577;45.226;5.798;2023-03-26T04:39:29;98701.67;;;20.40;45.23
14966;BME280;7577;45.226;5.798;2023-03-26T04:42:02;98703.84;;;20.40;45.28
14966;BME280;7577;45.226;5.798;2023-03-26T04:44:32;98695.22;;;20.42;45.30
14966;BME280;7577;45.226;5.798;2023-03-26T04:47:02;98680.81;;;20.42;45.32
14966;BME280;7577;45.226;5.798;2023-03-26T04:49:32;98673.91;;;20.42;45.27
14966;BME280;7577;45.226;5.798;2023-03-26T04:52:03;98673.34;;;20.43;45.32
14966;BME280;7577;45.226;5.798;2023-03-26T04:54:33;98676.11;;;20.43;45.32
14966;BME280;7577;45.226;5.798;2023-03-26T04:57:06;98679.34;;;20.45;45.32
14966;BME280;7577;45.226;5.798;2023-03-26T04:59:38;98671.86;;;20.45;45.28
14966;BME280;7577;45.226;5.798;2023-03-26T05:02:09;98664.34;;;20.46;45.32
14966;BME280;7577;45.226;5.798;2023-03-26T05:04:41;98659.05;;;20.47;45.27
14966;BME280;7577;45.226;5.798;2023-03-26T05:07:12;98652.13;;;20.47;45.26
14966;BME280;7577;45.226;5.798;2023-03-26T05:09:43;98649.36;;;20.47;45.26
14966;BME280;7577;45.226;5.798;2023-03-26T05:12:13;98658.16;;;20.49;45.22
14966;BME280;7577;45.226;5.798;2023-03-26T05:14:44;98652.63;;;20.49;45.22
14966;BME280;7577;45.226;5.798;2023-03-26T05:17:15;98652.85;;;20.50;45.29
14966;BME280;7577;45.226;5.798;2023-03-26T05:19:46;98636.25;;;20.50;45.23
14966;BME280;7577;45.226;5.798;2023-03-26T05:22:16;98630.72;;;20.50;45.20
14966;BME280;7577;45.226;5.798;2023-03-26T05:24:46;98641.45;;;20.51;45.16
14966;BME280;7577;45.226;5.798;2023-03-26T05:27:17;98632.09;;;20.50;45.19
14966;BME280;7577;45.226;5.798;2023-03-26T05:29:47;98651.70;;;20.51;45.20
14966;BME280;7577;45.226;5.798;2023-03-26T05:34:59;98660.39;;;20.55;45.19
14966;BME280;7577;45.226;5.798;2023-03-26T05:37:29;98649.98;;;20.52;45.20
14966;BME280;7577;45.226;5.798;2023-03-26T05:39:59;98642.73;;;20.54;45.21
14966;BME280;7577;45.226;5.798;2023-03-26T05:42:29;98652.98;;;20.53;45.20
14966;BME280;7577;45.226;5.798;2023-03-26T05:45:00;98652.64;;;20.55;45.17
14966;BME280;7577;45.226;5.798;2023-03-26T05:47:30;98653.80;;;20.54;45.19
14966;BME280;7577;45.226;5.798;2023-03-26T05:50:00;98646.32;;;20.54;45.20
14966;BME280;7577;45.226;5.798;2023-03-26T05:52:30;98629.13;;;20.55;45.24
14966;BME280;7577;45.226;5.798;2023-03-26T05:55:01;98631.89;;;20.55;45.28
14966;BME280;7577;45.226;5.798;2023-03-26T05:57:31;98644.34;;;20.55;45.28
14966;BME280;7577;45.226;5.798;2023-03-26T06:00:05;98626.02;;;20.56;45.27
14966;BME280;7577;45.226;5.798;2023-03-26T06:05:14;98611.65;;;20.63;45.32
14966;BME280;7577;45.226;5.798;2023-03-26T06:07:44;98612.14;;;20.65;45.34
14966;BME280;7577;45.226;5.798;2023-03-26T06:10:15;98608.32;;;20.63;45.33
14966;BME280;7577;45.226;5.798;2023-03-26T06:12:45;98600.81;;;20.64;45.37
14966;BME280;7577;45.226;5.798;2023-03-26T06:17:53;98620.34;;;20.67;45.38
14966;BME280;7577;45.226;5.798;2023-03-26T06:20:24;98631.02;;;20.63;45.45
14966;BME280;7577;45.226;5.798;2023-03-26T06:22:54;98647.06;;;20.63;45.53
14966;BME280;7577;45.226;5.798;2023-03-26T06:25:24;98657.80;;;20.65;45.77
14966;BME280;7577;45.226;5.798;2023-03-26T06:27:54;98654.11;;;20.67;46.18
14966;BME280;7577;45.226;5.798;2023-03-26T06:30:24;98646.27;;;20.69;46.61
14966;BME280;7577;45.226;5.798;2023-03-26T06:32:54;98651.96;;;20.72;47.05
14966;BME280;7577;45.226;5.798;2023-03-26T06:35:24;98649.42;;;20.73;47.06
14966;BME280;7577;45.226;5.798;2023-03-26T06:37:57;98647.81;;;20.72;47.10
14966;BME280;7577;45.226;5.798;2023-03-26T06:40:27;98655.29;;;20.72;47.10
14966;BME280;7577;45.226;5.798;2023-03-26T06:42:58;98644.45;;;20.73;47.12
14966;BME280;7577;45.226;5.798;2023-03-26T06:45:29;98642.27;;;20.72;47.17
14966;BME280;7577;45.226;5.798;2023-03-26T06:50:36;98656.56;;;20.74;47.11
14966;BME280;7577;45.226;5.798;2023-03-26T06:53:07;98646.66;;;20.73;47.32
14966;BME280;7577;45.226;5.798;2023-03-26T06:58:16;98624.79;;;20.80;47.83
14966;BME280;7577;45.226;5.798;2023-03-26T07:03:24;98638.31;;;20.88;48.02
14966;BME280;7577;45.226;5.798;2023-03-26T07:05:54;98644.19;;;20.86;47.99
14966;BME280;7577;45.226;5.798;2023-03-26T07:08:25;98634.38;;;20.83;47.88
14966;BME280;7577;45.226;5.798;2023-03-26T07:10:55;98626.96;;;20.81;47.74
14966;BME280;7577;45.226;5.798;2023-03-26T07:13:26;98614.27;;;20.80;47.76
14966;BME280;7577;45.226;5.798;2023-03-26T07:15:56;98619.92;;;20.77;47.81
14966;BME280;7577;45.226;5.798;2023-03-26T07:18:26;98621.30;;;20.77;47.83
14966;BME280;7577;45.226;5.798;2023-03-26T07:20:57;98623.50;;;20.78;47.78
14966;BME280;7577;45.226;5.798;2023-03-26T07:23:29;98634.31;;;20.77;47.74
14966;BME280;7577;45.226;5.798;2023-03-26T07:28:41;98654.29;;;20.76;47.83
14966;BME280;7577;45.226;5.798;2023-03-26T07:31:18;98656.56;;;20.74;47.81
14966;BME280;7577;45.226;5.798;2023-03-26T07:33:52;98652.64;;;20.75;47.71
14966;BME280;7577;45.226;5.798;2023-03-26T07:36:26;98640.78;;;20.75;47.64
14966;BME280;7577;45.226;5.798;2023-03-26T07:39:07;98657.95;;;20.74;47.62
14966;BME280;7577;45.226;5.798;2023-03-26T07:41:42;98657.95;;;20.74;47.59
14966;BME280;7577;45.226;5.798;2023-03-26T07:44:24;98662.92;;;20.75;47.57
14966;BME280;7577;45.226;5.798;2023-03-26T07:46:56;98653.02;;;20.74;47.59
14966;BME280;7577;45.226;5.798;2023-03-26T07:52:08;98646.55;;;20.76;47.56
14966;BME280;7577;45.226;5.798;2023-03-26T07:57:22;98657.39;;;20.75;47.53
14966;BME280;7577;45.226;5.798;2023-03-26T07:59:55;98667.97;;;20.73;47.55
14966;BME280;7577;45.226;5.798;2023-03-26T08:02:37;98653.02;;;20.74;47.48
14966;BME280;7577;45.226;5.798;2023-03-26T08:05:17;98647.11;;;20.75;47.45
14966;BME280;7577;45.226;5.798;2023-03-26T08:07:57;98662.10;;;20.74;47.42
14966;BME280;7577;45.226;5.798;2023-03-26T08:10:30;98669.02;;;20.74;47.44
14966;BME280;7577;45.226;5.798;2023-03-26T08:13:07;98675.48;;;20.72;47.43
14966;BME280;7577;45.226;5.798;2023-03-26T08:15:40;98662.10;;;20.74;47.48
14966;BME280;7577;45.226;5.798;2023-03-26T08:18:20;98666.38;;;20.92;47.96
14966;BME280;7577;45.226;5.798;2023-03-26T08:20:55;98676.46;;;20.82;47.95
14966;BME280;7577;45.226;5.798;2023-03-26T08:23:31;98685.69;;;20.80;47.92
14966;BME280;7577;45.226;5.798;2023-03-26T08:26:03;98669.08;;;20.80;47.91
14966;BME280;7577;45.226;5.798;2023-03-26T08:31:27;98678.41;;;20.82;48.04
14966;BME280;7577;45.226;5.798;2023-03-26T08:33:58;98688.92;;;20.82;48.31
14966;BME280;7577;45.226;5.798;2023-03-26T08:39:07;98684.33;;;20.86;48.37
14966;BME280;7577;45.226;5.798;2023-03-26T08:45:40;98681.17;;;20.82;48.22
14966;BME280;7577;45.226;5.798;2023-03-26T08:54:35;98689.13;;;20.77;48.19
14966;BME280;7577;45.226;5.798;2023-03-26T09:03:46;98697.42;;;20.77;48.11
14966;BME280;7577;45.226;5.798;2023-03-26T09:06:37;98696.38;;;20.76;48.10
14966;BME280;7577;45.226;5.798;2023-03-26T09:09:43;98693.61;;;20.76;48.05
14966;BME280;7577;45.226;5.798;2023-03-26T09:12:43;98695.55;;;20.75;48.06
14966;BME280;7577;45.226;5.798;2023-03-26T09:15:48;98698.81;;;20.77;48.00
14966;BME280;7577;45.226;5.798;2023-03-26T09:18:38;98708.83;;;20.76;48.04
14966;BME280;7577;45.226;5.798;2023-03-26T09:27:10;98739.77;;;20.78;48.02
14966;BME280;7577;45.226;5.798;2023-03-26T09:30:21;98735.95;;;20.76;48.02
14966;BME280;7577;45.226;5.798;2023-03-26T09:36:17;98717.14;;;20.76;48.02
14966;BME280;7577;45.226;5.798;2023-03-26T09:38:53;98720.73;;;20.76;47.97
14966;BME280;7577;45.226;5.798;2023-03-26T09:41:31;98719.58;;;20.77;47.90
14966;BME280;7577;45.226;5.798;2023-03-26T09:53:24;98706.19;;;20.79;47.86
14966;BME280;7577;45.226;5.798;2023-03-26T09:56:02;98693.05;;;20.76;47.85
14966;BME280;7577;45.226;5.798;2023-03-26T09:58:55;98710.70;;;20.78;47.86
14966;BME280;7577;45.226;5.798;2023-03-26T10:01:32;98717.37;;;20.77;47.85
14966;BME280;7577;45.226;5.798;2023-03-26T10:07:13;98677.72;;;20.79;47.85
14966;BME280;7577;45.226;5.798;2023-03-26T10:09:48;98669.31;;;20.81;47.78
14966;BME280;7577;45.226;5.798;2023-03-26T10:12:27;98669.44;;;20.85;47.77
14966;BME280;7577;45.226;5.798;2023-03-26T10:15:12;98682.71;;;20.85;47.77
14966;BME280;7577;45.226;5.798;2023-03-26T10:17:50;98684.33;;;20.86;47.76
14966;BME280;7577;45.226;5.798;2023-03-26T10:20:39;98681.23;;;20.88;47.70
14966;BME280;7577;45.226;5.798;2023-03-26T10:23:19;98669.56;;;20.88;47.73
14966;BME280;7577;45.226;5.798;2023-03-26T10:25:56;98664.02;;;20.88;47.75
14966;BME280;7577;45.226;5.798;2023-03-26T10:31:34;98654.59;;;20.89;47.78
14966;BME280;7577;45.226;5.798;2023-03-26T10:34:13;98653.54;;;20.88;47.79
14966;BME280;7577;45.226;5.798;2023-03-26T10:45:34;98626.08;;;20.89;47.87
14966;BME280;7577;45.226;5.798;2023-03-26T10:48:35;98624.23;;;20.87;47.86
14966;BME280;7577;45.226;5.798;2023-03-26T10:54:16;98604.68;;;20.92;47.79
14966;BME280;7577;45.226;5.798;2023-03-26T10:56:47;98598.44;;;20.95;47.71
14966;BME280;7577;45.226;5.798;2023-03-26T10:59:18;98597.31;;;20.96;47.68
14966;BME280;7577;45.226;5.798;2023-03-26T11:01:51;98604.92;;;20.99;47.61
14966;BME280;7577;45.226;5.798;2023-03-26T11:04:28;98602.41;;;21.00;47.63
14966;BME280;7577;45.226;5.798;2023-03-26T11:07:03;98608.51;;;20.99;47.60
14966;BME280;7577;45.226;5.798;2023-03-26T11:09:38;98601.02;;;21.00;47.62
14966;BME280;7577;45.226;5.798;2023-03-26T11:12:13;98591.33;;;21.00;47.59
14966;BME280;7577;45.226;5.798;2023-03-26T11:14:48;98597.32;;;21.02;47.56
14966;BME280;7577;45.226;5.798;2023-03-26T11:17:21;98604.02;;;21.01;47.57
14966;BME280;7577;45.226;5.798;2023-03-26T11:19:54;98607.13;;;20.99;47.58
14966;BME280;7577;45.226;5.798;2023-03-26T11:22:28;98601.58;;;20.99;47.59
14966;BME280;7577;45.226;5.798;2023-03-26T11:28:13;98576.66;;;20.99;47.65
14966;BME280;7577;45.226;5.798;2023-03-26T11:30:47;98598.48;;;21.01;47.60
14966;BME280;7577;45.226;5.798;2023-03-26T11:33:22;98610.83;;;21.03;47.58
14966;BME280;7577;45.226;5.798;2023-03-26T11:35:54;98598.03;;;21.05;47.50
14966;BME280;7577;45.226;5.798;2023-03-26T11:38:29;98579.33;;;21.08;47.47
14966;BME280;7577;45.226;5.798;2023-03-26T11:41:02;98581.53;;;21.08;47.45
14966;BME280;7577;45.226;5.798;2023-03-26T11:43:35;98594.70;;;21.11;47.43
14966;BME280;7577;45.226;5.798;2023-03-26T11:48:47;98568.52;;;21.15;47.39
14966;BME280;7577;45.226;5.798;2023-03-26T11:51:21;98575.55;;;21.12;47.41
14966;BME280;7577;45.226;5.798;2023-03-26T11:53:52;98559.38;;;21.14;47.41
14966;BME280;7577;45.226;5.798;2023-03-26T11:56:26;98558.00;;;21.14;47.40
14966;BME280;7577;45.226;5.798;2023-03-26T12:01:45;98565.30;;;21.19;47.37
14966;BME280;7577;45.226;5.798;2023-03-26T12:04:18;98563.53;;;21.14;47.39
14966;BME280;7577;45.226;5.798;2023-03-26T12:06:54;98559.05;;;21.16;47.38
14966;BME280;7577;45.226;5.798;2023-03-26T12:09:26;98564.25;;;21.17;47.39
14966;BME280;7577;45.226;5.798;2023-03-26T12:14:40;98577.53;;;21.24;47.30
14966;BME280;7577;45.226;5.798;2023-03-26T12:19:50;98544.18;;;21.26;47.26
14966;BME280;7577;45.226;5.798;2023-03-26T12:22:29;98535.87;;;21.26;47.25
14966;BME280;7577;45.226;5.798;2023-03-26T12:25:14;98524.34;;;21.30;47.20
14966;BME280;7577;45.226;5.798;2023-03-26T12:30:29;98520.77;;;21.36;47.12
14966;BME280;7577;45.226;5.798;2023-03-26T12:33:04;98513.62;;;21.35;47.12
14966;BME280;7577;45.226;5.798;2023-03-26T12:35:35;98503.80;;;21.37;47.10
14966;BME280;7577;45.226;5.798;2023-03-26T12:38:21;98489.12;;;21.37;47.09
14966;BME280;7577;45.226;5.798;2023-03-26T12:41:05;98490.06;;;21.35;47.16
14966;BME280;7577;45.226;5.798;2023-03-26T12:46:25;98490.86;;;21.35;47.22
14966;BME280;7577;45.226;5.798;2023-03-26T12:48:59;98500.55;;;21.35;47.23
14966;BME280;7577;45.226;5.798;2023-03-26T12:51:37;98494.45;;;21.36;47.24
14966;BME280;7577;45.226;5.798;2023-03-26T12:54:22;98485.91;;;21.35;47.23
14966;BME280;7577;45.226;5.798;2023-03-26T12:56:57;98483.93;;;21.35;47.27
14966;BME280;7577;45.226;5.798;2023-03-26T12:59:36;98486.25;;;21.33;47.33
14966;BME280;7577;45.226;5.798;2023-03-26T13:02:19;98481.50;;;21.34;47.33
14966;BME280;7577;45.226;5.798;2023-03-26T13:05:00;98471.23;;;21.34;47.33
14966;BME280;7577;45.226;5.798;2023-03-26T13:07:45;98467.08;;;21.34;47.35
14966;BME280;7577;45.226;5.798;2023-03-26T13:10:55;98451.02;;;21.34;47.34
14966;BME280;7577;45.226;5.798;2023-03-26T13:13:48;98461.54;;;21.34;47.35
14966;BME280;7577;45.226;5.798;2023-03-26T13:19:08;98467.42;;;21.33;47.44
14966;BME280;7577;45.226;5.798;2023-03-26T13:24:33;98510.48;;;21.30;47.50
14966;BME280;7577;45.226;5.798;2023-03-26T13:27:14;98536.69;;;21.27;47.58
14966;BME280;7577;45.226;5.798;2023-03-26T13:29:47;98549.61;;;21.23;47.62
14966;BME280;7577;45.226;5.798;2023-03-26T13:32:23;98561.03;;;21.21;47.68
14966;BME280;7577;45.226;5.798;2023-03-26T13:35:01;98563.57;;;21.20;47.70
14966;BME280;7577;45.226;5.798;2023-03-26T13:40:20;98519.81;;;21.26;47.58
14966;BME280;7577;45.226;5.798;2023-03-26T13:43:04;98539.57;;;21.30;47.46
14966;BME280;7577;45.226;5.798;2023-03-26T13:45:43;98542.36;;;21.42;47.18
14966;BME280;7577;45.226;5.798;2023-03-26T13:48:16;98547.44;;;21.52;46.99
14966;BME280;7577;45.226;5.798;2023-03-26T13:50:50;98545.37;;;21.61;46.76
14966;BME280;7577;45.226;5.798;2023-03-26T13:53:22;98531.88;;;21.66;46.60
14966;BME280;7577;45.226;5.798;2023-03-26T13:55:55;98529.55;;;21.68;46.51
14966;BME280;7577;45.226;5.798;2023-03-26T13:58:31;98530.70;;;21.67;46.47
14966;BME280;7577;45.226;5.798;2023-03-26T14:01:04;98536.47;;;21.68;46.42
14966;BME280;7577;45.226;5.798;2023-03-26T14:03:42;98538.80;;;21.66;46.40
14966;BME280;7577;45.226;5.798;2023-03-26T14:06:17;98533.59;;;21.64;46.40
14966;BME280;7577;45.226;5.798;2023-03-26T14:08:51;98534.39;;;21.65;46.33
14966;BME280;7577;45.226;5.798;2023-03-26T14:11:26;98537.05;;;21.67;46.28
14966;BME280;7577;45.226;5.798;2023-03-26T14:16:37;98530.95;;;21.74;46.16
14966;BME280;7577;45.226;5.798;2023-03-26T14:19:21;98527.97;;;21.79;45.96
14966;BME280;7577;45.226;5.798;2023-03-26T14:27:57;98504.38;;;21.97;45.55
14966;BME280;7577;45.226;5.798;2023-03-26T14:37:04;98493.92;;;22.12;45.20
14966;BME280;7577;45.226;5.798;2023-03-26T14:42:40;98480.94;;;22.22;44.83
14966;BME280;7577;45.226;5.798;2023-03-26T14:45:28;98479.64;;;22.32;44.58
14966;BME280;7577;45.226;5.798;2023-03-26T14:48:08;98488.06;;;22.35;44.45
14966;BME280;7577;45.226;5.798;2023-03-26T14:50:58;98482.29;;;22.40;44.31
14966;BME280;7577;45.226;5.798;2023-03-26T14:53:31;98482.95;;;22.43;44.20
14966;BME280;7577;45.226;5.798;2023-03-26T15:02:40;98462.91;;;22.28;44.40
14966;BME280;7577;45.226;5.798;2023-03-26T15:05:44;98454.48;;;22.18;44.53
14966;BME280;7577;45.226;5.798;2023-03-26T15:11:44;98456.63;;;22.03;44.79
14966;BME280;7577;45.226;5.798;2023-03-26T15:33:38;98451.36;;;21.68;45.33
14966;BME280;7577;45.226;5.798;2023-03-26T15:39:29;98455.50;;;21.62;45.41
14966;BME280;7577;45.226;5.798;2023-03-26T15:42:02;98460.83;;;21.61;45.39
14966;BME280;7577;45.226;5.798;2023-03-26T15:50:41;98449.86;;;21.59;45.42
14966;BME280;7577;45.226;5.798;2023-03-26T15:53:18;98440.16;;;21.59;45.42
14966;BME280;7577;45.226;5.798;2023-03-26T15:55:57;98430.23;;;21.58;45.40
14966;BME280;7577;45.226;5.798;2023-03-26T15:58:32;98416.95;;;21.57;45.38
14966;BME280;7577;45.226;5.798;2023-03-26T16:01:09;98419.94;;;21.58;45.42
14966;BME280;7577;45.226;5.798;2023-03-26T16:03:43;98409.67;;;21.59;45.37
14966;BME280;7577;45.226;5.798;2023-03-26T16:09:39;98395.94;;;21.56;45.38
14966;BME280;7577;45.226;5.798;2023-03-26T16:15:30;98389.48;;;21.52;45.35
14966;BME280;7577;45.226;5.798;2023-03-26T16:21:34;98381.51;;;21.51;45.32
14966;BME280;7577;45.226;5.798;2023-03-26T16:27:28;98369.98;;;21.49;45.30
14966;BME280;7577;45.226;5.798;2023-03-26T16:33:16;98357.75;;;21.44;45.34
14966;BME280;7577;45.226;5.798;2023-03-26T16:36:09;98362.92;;;21.45;45.31
14966;BME280;7577;45.226;5.798;2023-03-26T16:38:51;98348.63;;;21.43;45.32
14966;BME280;7577;45.226;5.798;2023-03-26T16:41:22;98337.09;;;21.41;45.30
14966;BME280;7577;45.226;5.798;2023-03-26T16:44:06;98336.05;;;21.40;45.34
14966;BME280;7577;45.226;5.798;2023-03-26T16:46:46;98329.91;;;21.40;45.29
14966;BME280;7577;45.226;5.798;2023-03-26T16:52:31;98317.57;;;21.38;45.27
14966;BME280;7577;45.226;5.798;2023-03-26T16:55:11;98317.70;;;21.35;45.25
14966;BME280;7577;45.226;5.798;2023-03-26T17:00:30;98306.61;;;21.35;45.18
14966;BME280;7577;45.226;5.798;2023-03-26T17:03:09;98300.38;;;21.32;45.18
14966;BME280;7577;45.226;5.798;2023-03-26T17:05:47;98300.97;;;21.32;45.09
14966;BME280;7577;45.226;5.798;2023-03-26T17:08:18;98293.58;;;21.30;45.08
14966;BME280;7577;45.226;5.798;2023-03-26T17:10:58;98293.83;;;21.31;45.07
14966;BME280;7577;45.226;5.798;2023-03-26T17:13:34;98285.64;;;21.28;45.03
14966;BME280;7577;45.226;5.798;2023-03-26T17:16:08;98278.72;;;21.28;45.05
14966;BME280;7577;45.226;5.798;2023-03-26T17:21:23;98278.47;;;21.27;45.04
14966;BME280;7577;45.226;5.798;2023-03-26T17:26:49;98274.91;;;21.27;45.05
14966;BME280;7577;45.226;5.798;2023-03-26T17:29:28;98278.14;;;21.23;45.05
14966;BME280;7577;45.226;5.798;2023-03-26T17:32:03;98274.21;;;21.24;45.02
14966;BME280;7577;45.226;5.798;2023-03-26T17:37:44;98272.39;;;21.22;45.02